sensor_id;sensor_type;location;lat;lon;timestamp;pressure;altitude;pressure_sealevel;temperature;humidity
17593;BME280;8915;51.760;14.300;2023-02-20T00:00:09;101495.34;;;-1.10;100.00
17593;BME280;8915;51.760;14.300;2023-02-20T00:02:42;101497.13;;;-1.07;100.00
17593;BME280;8915;51.760;14.300;2023-02-20T00:05:11;101494.53;;;-1.09;100.00
17593;BME280;8915;51.760;14.300;2023-02-20T00:07:37;101495.22;;;-1.13;100.00
17593;BME280;8915;51.760;14.300;2023-02-20T00:10:05;101483.16;;;-1.17;100.00
17593;BME280;8915;51.760;14.300;2023-02-20T00:12:32;101478.81;;;-1.18;100.00
17593;BME280;8915;51.760;14.300;2023-02-20T00:14:58;101469.19;;;-1.25;100.00
17593;BME280;8915;51.760;14.300;2023-02-20T00:17:26;101467.28;;;-1.31;100.00
17593;BME280;8915;51.760;14.300;2023-02-20T00:19:53;101459.34;;;-1.39;100.00
17593;BME280;8915;51.760;14.300;2023-02-20T00:22:20;101454.13;;;-1.42;100.00
17593;BME280;8915;51.760;14.300;2023-02-20T00:24:47;101468.44;;;-1.47;100.00
17593;BME280;8915;51.760;14.300;2023-02-20T00:27:13;101461.56;;;-1.48;100.00
17593;BME280;8915;51.760;14.300;2023-02-20T00:29:40;101468.19;;;-1.53;100.00
17593;BME280;8915;51.760;14.300;2023-02-20T00:32:06;101471.59;;;-1.54;100.00
17593;BME280;8915;51.760;14.300;2023-02-20T00:34:34;101468.09;;;-1.56;100.00
17593;BME280;8915;51.760;14.300;2023-02-20T00:37:00;101467.84;;;-1.62;100.00
17593;BME280;8915;51.760;14.300;2023-02-20T00:39:27;101470.25;;;-1.67;100.00
17593;BME280;8915;51.760;14.300;2023-02-20T00:41:54;101455.50;;;-1.74;100.00
17593;BME280;8915;51.760;14.300;2023-02-20T00:44:21;101445.22;;;-1.76;100.00
17593;BME280;8915;51.760;14.300;2023-02-20T00:46:48;101439.06;;;-1.81;100.00
17593;BME280;8915;51.760;14.300;2023-02-20T00:49:14;101434.09;;;-1.76;100.00
17593;BME280;8915;51.760;14.300;2023-02-20T00:51:46;101417.16;;;-1.74;100.00
17593;BME280;8915;51.760;14.300;2023-02-20T00:54:12;101412.06;;;-1.73;100.00
17593;BME280;8915;51.760;14.300;2023-02-20T00:56:39;101412.06;;;-1.73;100.00
17593;BME280;8915;51.760;14.300;2023-02-20T00:59:06;101408.72;;;-1.72;100.00
17593;BME280;8915;51.760;14.300;2023-02-20T01:01:32;101414.63;;;-1.73;100.00
17593;BME280;8915;51.760;14.300;2023-02-20T01:03:59;101406.03;;;-1.75;100.00
17593;BME280;8915;51.760;14.300;2023-02-20T01:06:27;101409.44;;;-1.76;100.00
17593;BME280;8915;51.760;14.300;2023-02-20T01:08:57;101405.97;;;-1.76;100.00
17593;BME280;8915;51.760;14.300;2023-02-20T01:11:24;101410.09;;;-1.80;100.00
17593;BME280;8915;51.760;14.300;2023-02-20T01:13:51;101414.19;;;-1.85;100.00
17593;BME280;8915;51.760;14.300;2023-02-20T01:16:17;101416.84;;;-1.82;100.00
17593;BME280;8915;51.760;14.300;2023-02-20T01:18:44;101417.91;;;-1.77;100.00
17593;BME280;8915;51.760;14.300;2023-02-20T01:21:10;101422.88;;;-1.80;100.00
17593;BME280;8915;51.760;14.300;2023-02-20T01:23:36;101419.34;;;-1.83;100.00
17593;BME280;8915;51.760;14.300;2023-02-20T01:26:04;101422.81;;;-1.81;100.00
17593;BME280;8915;51.760;14.300;2023-02-20T01:28:30;101412.56;;;-1.83;100.00
17593;BME280;8915;51.760;14.300;2023-02-20T01:30:57;101415.94;;;-1.84;100.00
17593;BME280;8915;51.760;14.300;2023-02-20T01:33:23;101404.91;;;-1.83;100.00
17593;BME280;8915;51.760;14.300;2023-02-20T01:35:51;101408.97;;;-1.88;100.00
17593;BME280;8915;51.760;14.300;2023-02-20T01:38:20;101401.97;;;-1.92;100.00
17593;BME280;8915;51.760;14.300;2023-02-20T01:40:47;101402.88;;;-1.92;100.00
17593;BME280;8915;51.760;14.300;2023-02-20T01:43:16;101393.38;;;-1.94;100.00
17593;BME280;8915;51.760;14.300;2023-02-20T01:45:43;101378.00;;;-1.96;100.00
17593;BME280;8915;51.760;14.300;2023-02-20T01:48:18;101369.53;;;-1.95;100.00
17593;BME280;8915;51.760;14.300;2023-02-20T01:50:49;101363.50;;;-1.97;100.00
17593;BME280;8915;51.760;14.300;2023-02-20T01:53:21;101360.94;;;-1.97;100.00
17593;BME280;8915;51.760;14.300;2023-02-20T01:55:50;101358.38;;;-1.97;100.00
17593;BME280;8915;51.760;14.300;2023-02-20T01:58:23;101362.59;;;-1.97;100.00
17593;BME280;8915;51.760;14.300;2023-02-20T02:00:51;101351.69;;;-1.93;100.00
17593;BME280;8915;51.760;14.300;2023-02-20T02:03:21;101349.22;;;-1.90;100.00
17593;BME280;8915;51.760;14.300;2023-02-20T02:05:52;101346.03;;;-1.84;100.00
17593;BME280;8915;51.760;14.300;2023-02-20T02:08:21;101355.63;;;-1.79;100.00
17593;BME280;8915;51.760;14.300;2023-02-20T02:10:53;101355.81;;;-1.73;100.00
17593;BME280;8915;51.760;14.300;2023-02-20T02:13:23;101335.66;;;-1.65;100.00
17593;BME280;8915;51.760;14.300;2023-02-20T02:16:00;101324.75;;;-1.59;100.00
17593;BME280;8915;51.760;14.300;2023-02-20T02:18:46;101317.34;;;-1.52;100.00
17593;BME280;8915;51.760;14.300;2023-02-20T02:24:34;101308.41;;;-1.39;100.00
17593;BME280;8915;51.760;14.300;2023-02-20T02:27:25;101303.44;;;-1.34;100.00
17593;BME280;8915;51.760;14.300;2023-02-20T02:33:33;101285.88;;;-1.23;100.00
17593;BME280;8915;51.760;14.300;2023-02-20T02:36:23;101294.50;;;-1.20;100.00
17593;BME280;8915;51.760;14.300;2023-02-20T02:38:57;101289.44;;;-1.18;100.00
17593;BME280;8915;51.760;14.300;2023-02-20T02:41:37;101288.75;;;-1.14;100.00
17593;BME280;8915;51.760;14.300;2023-02-20T02:44:10;101276.13;;;-1.08;100.00
17593;BME280;8915;51.760;14.300;2023-02-20T02:46:44;101281.34;;;-1.05;100.00
17593;BME280;8915;51.760;14.300;2023-02-20T02:49:17;101281.50;;;-1.00;100.00
17593;BME280;8915;51.760;14.300;2023-02-20T02:51:47;101284.19;;;-0.96;100.00
17593;BME280;8915;51.760;14.300;2023-02-20T02:54:17;101285.22;;;-0.90;100.00
17593;BME280;8915;51.760;14.300;2023-02-20T02:56:47;101287.00;;;-0.88;100.00
17593;BME280;8915;51.760;14.300;2023-02-20T02:59:17;101287.13;;;-0.83;100.00
17593;BME280;8915;51.760;14.300;2023-02-20T03:01:49;101275.28;;;-0.80;100.00
17593;BME280;8915;51.760;14.300;2023-02-20T03:04:18;101272.03;;;-0.75;100.00
17593;BME280;8915;51.760;14.300;2023-02-20T03:06:52;101267.88;;;-0.70;100.00
17593;BME280;8915;51.760;14.300;2023-02-20T03:09:24;101259.34;;;-0.71;100.00
17593;BME280;8915;51.760;14.300;2023-02-20T03:11:53;101256.88;;;-0.68;100.00
17593;BME280;8915;51.760;14.300;2023-02-20T03:14:26;101255.47;;;-0.58;100.00
17593;BME280;8915;51.760;14.300;2023-02-20T03:17:14;101255.78;;;-0.47;100.00
17593;BME280;8915;51.760;14.300;2023-02-20T03:19:47;101250.00;;;-0.40;100.00
17593;BME280;8915;51.760;14.300;2023-02-20T03:22:18;101256.19;;;-0.33;100.00
17593;BME280;8915;51.760;14.300;2023-02-20T03:24:49;101258.84;;;-0.29;100.00
17593;BME280;8915;51.760;14.300;2023-02-20T03:27:36;101265.03;;;-0.22;100.00
17593;BME280;8915;51.760;14.300;2023-02-20T03:30:12;101259.19;;;-0.16;100.00
17593;BME280;8915;51.760;14.300;2023-02-20T03:32:41;101259.28;;;-0.13;100.00
17593;BME280;8915;51.760;14.300;2023-02-20T03:35:31;101264.56;;;-0.09;100.00
17593;BME280;8915;51.760;14.300;2023-02-20T03:38:20;101248.56;;;0.00;100.00
17593;BME280;8915;51.760;14.300;2023-02-20T03:41:09;101249.53;;;0.05;100.00
17593;BME280;8915;51.760;14.300;2023-02-20T03:43:55;101244.47;;;0.08;100.00
17593;BME280;8915;51.760;14.300;2023-02-20T03:46:24;101246.28;;;0.11;100.00
17593;BME280;8915;51.760;14.300;2023-02-20T03:48:54;101238.72;;;0.17;100.00
17593;BME280;8915;51.760;14.300;2023-02-20T03:51:25;101241.38;;;0.20;100.00
17593;BME280;8915;51.760;14.300;2023-02-20T03:54:00;101245.81;;;0.26;100.00
17593;BME280;8915;51.760;14.300;2023-02-20T03:56:30;101241.63;;;0.29;100.00
17593;BME280;8915;51.760;14.300;2023-02-20T03:59:02;101244.34;;;0.35;100.00
17593;BME280;8915;51.760;14.300;2023-02-20T04:01:33;101233.25;;;0.36;100.00
17593;BME280;8915;51.760;14.300;2023-02-20T04:04:04;101242.09;;;0.48;100.00
17593;BME280;8915;51.760;14.300;2023-02-20T04:06:33;101242.13;;;0.49;100.00
17593;BME280;8915;51.760;14.300;2023-02-20T04:09:04;101234.44;;;0.51;100.00
17593;BME280;8915;51.760;14.300;2023-02-20T04:11:38;101211.56;;;0.59;100.00
17593;BME280;8915;51.760;14.300;2023-02-20T04:14:07;101202.31;;;0.67;100.00
17593;BME280;8915;51.760;14.300;2023-02-20T04:16:40;101204.13;;;0.69;100.00
17593;BME280;8915;51.760;14.300;2023-02-20T04:19:09;101206.81;;;0.74;100.00
17593;BME280;8915;51.760;14.300;2023-02-20T04:21:38;101209.50;;;0.80;100.00
17593;BME280;8915;51.760;14.300;2023-02-20T04:24:12;101210.47;;;0.85;100.00
17593;BME280;8915;51.760;14.300;2023-02-20T04:26:40;101220.88;;;0.91;100.00
17593;BME280;8915;51.760;14.300;2023-02-20T04:29:07;101221.03;;;0.98;100.00
17593;BME280;8915;51.760;14.300;2023-02-20T04:31:34;101226.28;;;1.02;100.00
17593;BME280;8915;51.760;14.300;2023-02-20T04:34:01;101228.03;;;1.05;100.00
17593;BME280;8915;51.760;14.300;2023-02-20T04:36:27;101229.00;;;1.10;100.00
17593;BME280;8915;51.760;14.300;2023-02-20T04:38:56;101227.41;;;1.15;100.00
17593;BME280;8915;51.760;14.300;2023-02-20T04:41:28;101224.16;;;1.24;100.00
17593;BME280;8915;51.760;14.300;2023-02-20T04:43:55;101219.94;;;1.26;100.00
17593;BME280;8915;51.760;14.300;2023-02-20T04:46:36;101208.88;;;1.30;100.00
17593;BME280;8915;51.760;14.300;2023-02-20T04:49:02;101200.41;;;1.34;100.00
17593;BME280;8915;51.760;14.300;2023-02-20T04:51:28;101197.03;;;1.37;100.00
17593;BME280;8915;51.760;14.300;2023-02-20T04:53:55;101187.66;;;1.40;100.00
17593;BME280;8915;51.760;14.300;2023-02-20T04:56:22;101179.19;;;1.43;100.00
17593;BME280;8915;51.760;14.300;2023-02-20T04:58:49;101175.00;;;1.49;100.00
17593;BME280;8915;51.760;14.300;2023-02-20T05:01:19;101169.94;;;1.52;100.00
17593;BME280;8915;51.760;14.300;2023-02-20T05:03:45;101179.41;;;1.55;100.00
17593;BME280;8915;51.760;14.300;2023-02-20T05:06:12;101174.28;;;1.55;100.00
17593;BME280;8915;51.760;14.300;2023-02-20T05:08:38;101172.63;;;1.59;100.00
17593;BME280;8915;51.760;14.300;2023-02-20T05:11:05;101158.97;;;1.61;100.00
17593;BME280;8915;51.760;14.300;2023-02-20T05:13:32;101153.91;;;1.66;100.00
17593;BME280;8915;51.760;14.300;2023-02-20T05:16:00;101158.25;;;1.70;100.00
17593;BME280;8915;51.760;14.300;2023-02-20T05:18:29;101154.16;;;1.78;100.00
17593;BME280;8915;51.760;14.300;2023-02-20T05:20:56;101149.06;;;1.83;100.00
17593;BME280;8915;51.760;14.300;2023-02-20T05:23:40;101150.03;;;1.89;100.00
17593;BME280;8915;51.760;14.300;2023-02-20T05:26:08;101145.06;;;1.97;100.00
17593;BME280;8915;51.760;14.300;2023-02-20T05:28:34;101134.81;;;1.99;100.00
17593;BME280;8915;51.760;14.300;2023-02-20T05:31:02;101122.84;;;2.02;100.00
17593;BME280;8915;51.760;14.300;2023-02-20T05:33:29;101125.53;;;2.10;100.00
17593;BME280;8915;51.760;14.300;2023-02-20T05:35:55;101124.72;;;2.13;100.00
17593;BME280;8915;51.760;14.300;2023-02-20T05:38:21;101120.50;;;2.15;100.00
17593;BME280;8915;51.760;14.300;2023-02-20T05:40:48;101113.63;;;2.15;100.00
17593;BME280;8915;51.760;14.300;2023-02-20T05:43:15;101114.47;;;2.16;100.00
17593;BME280;8915;51.760;14.300;2023-02-20T05:45:41;101113.72;;;2.21;100.00
17593;BME280;8915;51.760;14.300;2023-02-20T05:48:10;101106.84;;;2.20;100.00
17593;BME280;8915;51.760;14.300;2023-02-20T05:50:36;101093.25;;;2.29;100.00
17593;BME280;8915;51.760;14.300;2023-02-20T05:53:04;101091.56;;;2.31;100.00
17593;BME280;8915;51.760;14.300;2023-02-20T05:55:31;101090.75;;;2.34;100.00
17593;BME280;8915;51.760;14.300;2023-02-20T05:57:58;101079.69;;;2.41;100.00
17593;BME280;8915;51.760;14.300;2023-02-20T06:00:24;101084.91;;;2.45;100.00
17593;BME280;8915;51.760;14.300;2023-02-20T06:02:51;101072.13;;;2.50;100.00
17593;BME280;8915;51.760;14.300;2023-02-20T06:05:19;101073.91;;;2.56;100.00
17593;BME280;8915;51.760;14.300;2023-02-20T06:07:45;101068.75;;;2.54;100.00
17593;BME280;8915;51.760;14.300;2023-02-20T06:10:14;101068.84;;;2.60;100.00
17593;BME280;8915;51.760;14.300;2023-02-20T06:12:40;101068.03;;;2.64;100.00
17593;BME280;8915;51.760;14.300;2023-02-20T06:15:07;101059.47;;;2.69;100.00
17593;BME280;8915;51.760;14.300;2023-02-20T06:17:34;101053.56;;;2.73;100.00
17593;BME280;8915;51.760;14.300;2023-02-20T06:20:00;101063.06;;;2.78;100.00
17593;BME280;8915;51.760;14.300;2023-02-20T06:22:28;101052.81;;;2.81;100.00
17593;BME280;8915;51.760;14.300;2023-02-20T06:24:54;101051.13;;;2.85;100.00
17593;BME280;8915;51.760;14.300;2023-02-20T06:27:20;101049.47;;;2.89;100.00
17593;BME280;8915;51.760;14.300;2023-02-20T06:29:47;101045.22;;;2.94;100.00
17593;BME280;8915;51.760;14.300;2023-02-20T06:32:14;101043.53;;;2.96;100.00
17593;BME280;8915;51.760;14.300;2023-02-20T06:34:42;101053.84;;;2.99;100.00
17593;BME280;8915;51.760;14.300;2023-02-20T06:37:09;101052.19;;;3.04;100.00
17593;BME280;8915;51.760;14.300;2023-02-20T06:39:37;101054.00;;;3.10;100.00
17593;BME280;8915;51.760;14.300;2023-02-20T06:42:04;101042.00;;;3.15;100.00
17593;BME280;8915;51.760;14.300;2023-02-20T06:44:31;101041.22;;;3.19;100.00
17593;BME280;8915;51.760;14.300;2023-02-20T06:46:58;101048.16;;;3.26;100.00
17593;BME280;8915;51.760;14.300;2023-02-20T06:49:29;101052.44;;;3.27;100.00
17593;BME280;8915;51.760;14.300;2023-02-20T06:51:55;101042.22;;;3.35;100.00
17593;BME280;8915;51.760;14.300;2023-02-20T06:54:21;101039.69;;;3.38;100.00
17593;BME280;8915;51.760;14.300;2023-02-20T06:56:49;101030.28;;;3.43;100.00
17593;BME280;8915;51.760;14.300;2023-02-20T06:59:16;101026.03;;;3.47;100.00
17593;BME280;8915;51.760;14.300;2023-02-20T07:01:43;101040.69;;;3.54;100.00
17593;BME280;8915;51.760;14.300;2023-02-20T07:04:15;101027.00;;;3.59;100.00
17593;BME280;8915;51.760;14.300;2023-02-20T07:06:41;101022.72;;;3.63;100.00
17593;BME280;8915;51.760;14.300;2023-02-20T07:09:09;101025.34;;;3.66;100.00
17593;BME280;8915;51.760;14.300;2023-02-20T07:11:35;101040.00;;;3.72;100.00
17593;BME280;8915;51.760;14.300;2023-02-20T07:14:03;101034.03;;;3.79;100.00
17593;BME280;8915;51.760;14.300;2023-02-20T07:16:29;101038.34;;;3.83;100.00
17593;BME280;8915;51.760;14.300;2023-02-20T07:18:56;101037.53;;;3.86;100.00
17593;BME280;8915;51.760;14.300;2023-02-20T07:21:23;101037.59;;;3.93;100.00
17593;BME280;8915;51.760;14.300;2023-02-20T07:23:49;101026.47;;;4.01;100.00
17593;BME280;8915;51.760;14.300;2023-02-20T07:26:17;101027.34;;;4.06;100.00
17593;BME280;8915;51.760;14.300;2023-02-20T07:28:44;101023.16;;;4.17;100.00
17593;BME280;8915;51.760;14.300;2023-02-20T07:31:11;101011.13;;;4.21;100.00
17593;BME280;8915;51.760;14.300;2023-02-20T07:33:38;101003.41;;;4.22;100.00
17593;BME280;8915;51.760;14.300;2023-02-20T07:36:07;101000.84;;;4.31;100.00
17593;BME280;8915;51.760;14.300;2023-02-20T07:38:34;101008.63;;;4.38;100.00
17593;BME280;8915;51.760;14.300;2023-02-20T07:41:00;101008.66;;;4.44;100.00
17593;BME280;8915;51.760;14.300;2023-02-20T07:43:27;100982.88;;;4.50;100.00
17593;BME280;8915;51.760;14.300;2023-02-20T07:45:53;101007.84;;;4.55;100.00
17593;BME280;8915;51.760;14.300;2023-02-20T07:48:21;101011.34;;;4.64;100.00
17593;BME280;8915;51.760;14.300;2023-02-20T07:50:47;100999.28;;;4.64;100.00
17593;BME280;8915;51.760;14.300;2023-02-20T07:53:16;101005.31;;;4.63;100.00
17593;BME280;8915;51.760;14.300;2023-02-20T07:55:42;101013.06;;;4.63;100.00
17593;BME280;8915;51.760;14.300;2023-02-20T07:58:09;100994.13;;;4.63;100.00
17593;BME280;8915;51.760;14.300;2023-02-20T08:00:35;100952.78;;;4.64;100.00
17593;BME280;8915;51.760;14.300;2023-02-20T08:03:01;100947.66;;;4.70;100.00
17593;BME280;8915;51.760;14.300;2023-02-20T08:05:29;100971.78;;;4.77;100.00
17593;BME280;8915;51.760;14.300;2023-02-20T08:07:56;100979.53;;;4.83;100.00
17593;BME280;8915;51.760;14.300;2023-02-20T08:10:26;100982.19;;;4.91;100.00
17593;BME280;8915;51.760;14.300;2023-02-20T08:12:54;100951.16;;;4.96;100.00
17593;BME280;8915;51.760;14.300;2023-02-20T08:15:21;100978.75;;;5.00;100.00
17593;BME280;8915;51.760;14.300;2023-02-20T08:17:48;100989.97;;;5.03;100.00
17593;BME280;8915;51.760;14.300;2023-02-20T08:20:16;100985.66;;;5.11;100.00
17593;BME280;8915;51.760;14.300;2023-02-20T08:22:44;100980.50;;;5.18;100.00
17593;BME280;8915;51.760;14.300;2023-02-20T08:25:11;100984.81;;;5.25;100.00
17593;BME280;8915;51.760;14.300;2023-02-20T08:27:41;100960.69;;;5.30;100.00
17593;BME280;8915;51.760;14.300;2023-02-20T08:30:10;100957.25;;;5.41;100.00
17593;BME280;8915;51.760;14.300;2023-02-20T08:32:37;100946.91;;;5.50;100.00
17593;BME280;8915;51.760;14.300;2023-02-20T08:35:04;100952.09;;;5.58;100.00
17593;BME280;8915;51.760;14.300;2023-02-20T08:37:30;100945.16;;;5.64;100.00
17593;BME280;8915;51.760;14.300;2023-02-20T08:39:58;100935.72;;;5.65;100.00
17593;BME280;8915;51.760;14.300;2023-02-20T08:42:27;100910.69;;;5.64;100.00
17593;BME280;8915;51.760;14.300;2023-02-20T08:44:53;100930.53;;;5.62;100.00
17593;BME280;8915;51.760;14.300;2023-02-20T08:47:21;100925.34;;;5.60;100.00
17593;BME280;8915;51.760;14.300;2023-02-20T08:49:47;100933.09;;;5.60;100.00
17593;BME280;8915;51.760;14.300;2023-02-20T08:52:14;100933.09;;;5.60;100.00
17593;BME280;8915;51.760;14.300;2023-02-20T08:54:43;100908.97;;;5.58;100.00
17593;BME280;8915;51.760;14.300;2023-02-20T08:57:12;100902.94;;;5.56;100.00
17593;BME280;8915;51.760;14.300;2023-02-20T08:59:38;100884.84;;;5.58;100.00
17593;BME280;8915;51.760;14.300;2023-02-20T09:02:05;100889.97;;;5.59;100.00
17593;BME280;8915;51.760;14.300;2023-02-20T09:04:31;100895.19;;;5.58;100.00
17593;BME280;8915;51.760;14.300;2023-02-20T09:06:58;100895.16;;;5.59;100.00
17593;BME280;8915;51.760;14.300;2023-02-20T09:09:24;100896.91;;;5.60;100.00
17593;BME280;8915;51.760;14.300;2023-02-20T09:11:51;100890.88;;;5.60;100.00
17593;BME280;8915;51.760;14.300;2023-02-20T09:14:18;100890.88;;;5.63;100.00
17593;BME280;8915;51.760;14.300;2023-02-20T09:16:45;100879.66;;;5.64;100.00
17593;BME280;8915;51.760;14.300;2023-02-20T09:19:11;100863.28;;;5.63;100.00
17593;BME280;8915;51.760;14.300;2023-02-20T09:21:39;100861.53;;;5.65;100.00
17593;BME280;8915;51.760;14.300;2023-02-20T09:24:05;100864.13;;;5.68;100.00
17593;BME280;8915;51.760;14.300;2023-02-20T09:26:32;100846.88;;;5.69;100.00
17593;BME280;8915;51.760;14.300;2023-02-20T09:28:58;100846.88;;;5.72;100.00
17593;BME280;8915;51.760;14.300;2023-02-20T09:31:26;100845.97;;;5.73;100.00
17593;BME280;8915;51.760;14.300;2023-02-20T09:33:53;100844.28;;;5.74;100.00
17593;BME280;8915;51.760;14.300;2023-02-20T09:36:19;100852.88;;;5.77;100.00
17593;BME280;8915;51.760;14.300;2023-02-20T09:38:46;100851.16;;;5.81;100.00
17593;BME280;8915;51.760;14.300;2023-02-20T09:41:22;100849.41;;;5.84;100.00
17593;BME280;8915;51.760;14.300;2023-02-20T09:43:56;100833.00;;;5.87;100.00
17593;BME280;8915;51.760;14.300;2023-02-20T09:46:26;100837.31;;;5.91;100.00
17593;BME280;8915;51.760;14.300;2023-02-20T09:49:05;100833.84;;;5.94;100.00
17593;BME280;8915;51.760;14.300;2023-02-20T09:51:39;100819.19;;;6.00;100.00
17593;BME280;8915;51.760;14.300;2023-02-20T09:54:09;100818.31;;;6.04;100.00
17593;BME280;8915;51.760;14.300;2023-02-20T09:56:40;100811.38;;;6.11;100.00
17593;BME280;8915;51.760;14.300;2023-02-20T09:59:13;100798.44;;;6.13;100.00
17593;BME280;8915;51.760;14.300;2023-02-20T10:01:53;100809.63;;;6.16;100.00
17593;BME280;8915;51.760;14.300;2023-02-20T10:04:24;100797.53;;;6.20;100.00
17593;BME280;8915;51.760;14.300;2023-02-20T10:06:54;100799.22;;;6.24;100.00
17593;BME280;8915;51.760;14.300;2023-02-20T10:09:26;100798.34;;;6.28;100.00
17593;BME280;8915;51.760;14.300;2023-02-20T10:12:05;100796.56;;;6.35;100.00
17593;BME280;8915;51.760;14.300;2023-02-20T10:14:59;100788.78;;;6.42;100.00
17593;BME280;8915;51.760;14.300;2023-02-20T10:17:38;100784.38;;;6.52;100.00
17593;BME280;8915;51.760;14.300;2023-02-20T10:20:10;100782.59;;;6.60;100.00
17593;BME280;8915;51.760;14.300;2023-02-20T10:22:46;100769.56;;;6.70;100.00
17593;BME280;8915;51.760;14.300;2023-02-20T10:25:19;100761.75;;;6.74;100.00
17593;BME280;8915;51.760;14.300;2023-02-20T10:27:52;100747.91;;;6.78;100.00
17593;BME280;8915;51.760;14.300;2023-02-20T10:30:24;100761.69;;;6.80;100.00
17593;BME280;8915;51.760;14.300;2023-02-20T10:32:58;100746.97;;;6.84;100.00
17593;BME280;8915;51.760;14.300;2023-02-20T10:35:32;100727.13;;;6.86;100.00
17593;BME280;8915;51.760;14.300;2023-02-20T10:38:05;100726.19;;;6.93;100.00
17593;BME280;8915;51.760;14.300;2023-02-20T10:40:36;100711.38;;;7.05;100.00
17593;BME280;8915;51.760;14.300;2023-02-20T10:43:10;100719.06;;;7.12;100.00
17593;BME280;8915;51.760;14.300;2023-02-20T10:45:44;100704.31;;;7.19;100.00
17593;BME280;8915;51.760;14.300;2023-02-20T10:48:14;100693.88;;;7.25;100.00
17593;BME280;8915;51.760;14.300;2023-02-20T10:50:47;100695.53;;;7.31;100.00
17593;BME280;8915;51.760;14.300;2023-02-20T10:53:21;100700.69;;;7.35;100.00
17593;BME280;8915;51.760;14.300;2023-02-20T10:55:55;100683.31;;;7.41;100.00
17593;BME280;8915;51.760;14.300;2023-02-20T10:58:30;100685.81;;;7.47;100.00
17593;BME280;8915;51.760;14.300;2023-02-20T11:00:59;100662.41;;;7.53;100.00
17593;BME280;8915;51.760;14.300;2023-02-20T11:03:35;100670.06;;;7.64;100.00
17593;BME280;8915;51.760;14.300;2023-02-20T11:06:06;100682.84;;;7.77;100.00
17593;BME280;8915;51.760;14.300;2023-02-20T11:08:34;100672.31;;;7.88;100.00
17593;BME280;8915;51.760;14.300;2023-02-20T11:11:18;100673.00;;;8.01;100.00
17593;BME280;8915;51.760;14.300;2023-02-20T11:13:46;100683.22;;;8.12;100.00
17593;BME280;8915;51.760;14.300;2023-02-20T11:16:20;100666.50;;;8.28;100.00
17593;BME280;8915;51.760;14.300;2023-02-20T11:18:52;100666.28;;;8.44;100.00
17593;BME280;8915;51.760;14.300;2023-02-20T11:21:33;100676.47;;;8.56;100.00
17593;BME280;8915;51.760;14.300;2023-02-20T11:24:16;100659.78;;;8.71;100.00
17593;BME280;8915;51.760;14.300;2023-02-20T11:26:44;100646.63;;;8.79;100.00
17593;BME280;8915;51.760;14.300;2023-02-20T11:29:13;100670.63;;;8.93;100.00
17593;BME280;8915;51.760;14.300;2023-02-20T11:31:42;100655.84;;;8.95;100.00
17593;BME280;8915;51.760;14.300;2023-02-20T11:34:15;100654.88;;;9.02;100.00
17593;BME280;8915;51.760;14.300;2023-02-20T11:36:45;100640.13;;;9.01;100.00
17593;BME280;8915;51.760;14.300;2023-02-20T11:39:18;100627.97;;;9.02;100.00
17593;BME280;8915;51.760;14.300;2023-02-20T11:41:47;100623.75;;;8.96;100.00
17593;BME280;8915;51.760;14.300;2023-02-20T11:44:21;100617.59;;;9.00;100.00
17593;BME280;8915;51.760;14.300;2023-02-20T11:47:18;100608.06;;;9.02;100.00
17593;BME280;8915;51.760;14.300;2023-02-20T11:49:47;100611.59;;;8.98;100.00
17593;BME280;8915;51.760;14.300;2023-02-20T11:52:18;100619.53;;;8.90;100.00
17593;BME280;8915;51.760;14.300;2023-02-20T11:54:46;100596.97;;;8.93;100.00
17593;BME280;8915;51.760;14.300;2023-02-20T11:57:20;100608.97;;;8.98;100.00
17593;BME280;8915;51.760;14.300;2023-02-20T11:59:47;100597.50;;;9.08;100.00
17593;BME280;8915;51.760;14.300;2023-02-20T12:02:22;100599.13;;;9.14;100.00
17593;BME280;8915;51.760;14.300;2023-02-20T12:05:11;100603.41;;;9.18;100.00
17593;BME280;8915;51.760;14.300;2023-02-20T12:07:41;100613.66;;;9.24;100.00
17593;BME280;8915;51.760;14.300;2023-02-20T12:10:34;100605.66;;;9.34;100.00
17593;BME280;8915;51.760;14.300;2023-02-20T12:13:03;100606.41;;;9.39;100.00
17593;BME280;8915;51.760;14.300;2023-02-20T12:15:31;100603.75;;;9.42;100.00
17593;BME280;8915;51.760;14.300;2023-02-20T12:18:31;100615.78;;;9.47;100.00
17593;BME280;8915;51.760;14.300;2023-02-20T12:21:11;100606.81;;;9.61;100.00
17593;BME280;8915;51.760;14.300;2023-02-20T12:23:47;100612.78;;;9.66;100.00
17593;BME280;8915;51.760;14.300;2023-02-20T12:26:28;100601.31;;;9.73;100.00
17593;BME280;8915;51.760;14.300;2023-02-20T12:29:06;100602.59;;;9.93;100.00
17593;BME280;8915;51.760;14.300;2023-02-20T12:31:48;100611.41;;;9.89;100.00
17593;BME280;8915;51.760;14.300;2023-02-20T12:34:27;100581.88;;;9.88;100.00
17593;BME280;8915;51.760;14.300;2023-02-20T12:37:02;100587.78;;;9.95;100.00
17593;BME280;8915;51.760;14.300;2023-02-20T12:39:36;100594.75;;;9.94;100.00
17593;BME280;8915;51.760;14.300;2023-02-20T12:42:14;100584.19;;;10.00;100.00
17593;BME280;8915;51.760;14.300;2023-02-20T12:44:56;100592.09;;;9.97;100.00
17593;BME280;8915;51.760;14.300;2023-02-20T12:47:31;100589.28;;;10.05;100.00
17593;BME280;8915;51.760;14.300;2023-02-20T12:50:24;100582.19;;;10.12;100.00
17593;BME280;8915;51.760;14.300;2023-02-20T12:53:07;100592.75;;;10.05;100.00
17593;BME280;8915;51.760;14.300;2023-02-20T12:55:43;100604.16;;;10.00;100.00
17593;BME280;8915;51.760;14.300;2023-02-20T12:58:18;100600.88;;;9.92;100.00
17593;BME280;8915;51.760;14.300;2023-02-20T13:00:51;100595.78;;;9.89;100.00
17593;BME280;8915;51.760;14.300;2023-02-20T13:03:19;100578.47;;;9.84;100.00
17593;BME280;8915;51.760;14.300;2023-02-20T13:05:49;100568.09;;;9.83;100.00
17593;BME280;8915;51.760;14.300;2023-02-20T13:08:22;100572.41;;;9.85;100.00
17593;BME280;8915;51.760;14.300;2023-02-20T13:10:53;100568.78;;;9.91;100.00